createdAt,value
2023-02-11T00:01:21.388Z,2.28
2023-02-11T00:06:24.564Z,2.32
2023-02-11T00:11:30.779Z,2.31
2023-02-11T00:16:33.608Z,2.35
2023-02-11T00:21:36.433Z,2.36
2023-02-11T00:26:40.495Z,2.35
2023-02-11T00:31:43.445Z,2.36
2023-02-11T00:36:46.238Z,2.36
2023-02-11T00:41:52.180Z,2.37
2023-02-11T00:46:54.912Z,2.32
2023-02-11T00:51:57.706Z,2.31
2023-02-11T00:57:01.753Z,2.32
2023-02-11T01:02:04.655Z,2.34
2023-02-11T01:07:07.367Z,2.38
2023-02-11T01:12:11.482Z,2.42
2023-02-11T01:17:16.926Z,2.45
2023-02-11T01:22:19.692Z,2.49
2023-02-11T01:27:24.754Z,2.53
2023-02-11T01:32:27.593Z,2.54
2023-02-11T01:37:30.390Z,2.58
2023-02-11T01:42:34.868Z,2.61
2023-02-11T01:47:37.555Z,2.64
2023-02-11T01:52:41.027Z,2.67
2023-02-11T01:57:47.692Z,2.70
2023-02-11T02:02:55.677Z,2.69
2023-02-11T02:08:05.161Z,2.70
2023-02-11T02:13:09.292Z,2.71
2023-02-11T02:18:23.359Z,2.76
2023-02-11T02:23:39.040Z,2.79
2023-02-11T02:29:03.904Z,2.82
2023-02-11T02:34:11.059Z,2.87
2023-02-11T02:39:17.671Z,2.89
2023-02-11T02:44:21.381Z,2.93
2023-02-11T02:49:25.480Z,2.95
2023-02-11T02:54:45.667Z,2.99
2023-02-11T02:59:55.169Z,2.98
2023-02-11T03:05:04.505Z,3.04
2023-02-11T03:10:09.511Z,3.11
2023-02-11T03:15:13.342Z,3.15
2023-02-11T03:20:18.964Z,3.17
2023-02-11T03:25:22.001Z,3.20
2023-02-11T03:30:28.389Z,3.25
2023-02-11T03:35:34.382Z,3.24
2023-02-11T03:40:39.920Z,3.21
2023-02-11T03:45:42.739Z,3.20
2023-02-11T03:50:47.881Z,3.26
2023-02-11T03:55:52.131Z,3.28
2023-02-11T04:00:54.968Z,3.29
2023-02-11T04:05:59.055Z,3.31
2023-02-11T04:11:01.795Z,3.31
2023-02-11T04:16:08.848Z,3.27
2023-02-11T04:21:12.958Z,3.27
2023-02-11T04:26:15.933Z,3.24
2023-02-11T04:31:18.767Z,3.22
2023-02-11T04:36:22.900Z,3.27
2023-02-11T04:41:25.743Z,3.32
2023-02-11T04:46:28.526Z,3.29
2023-02-11T04:51:32.653Z,3.30
2023-02-11T04:56:35.522Z,3.31
2023-02-11T05:01:38.433Z,3.31
2023-02-11T05:06:42.581Z,3.34
2023-02-11T05:11:45.501Z,3.31
2023-02-11T05:16:48.337Z,3.33
2023-02-11T05:22:02.116Z,3.37
2023-02-11T05:27:05.946Z,3.35
2023-02-11T05:32:09.086Z,3.36
2023-02-11T05:37:13.201Z,3.40
2023-02-11T05:42:16.146Z,3.48
2023-02-11T05:47:18.868Z,3.51
2023-02-11T05:52:23.312Z,3.53
2023-02-11T05:57:26.005Z,3.56
2023-02-11T06:02:28.971Z,3.58
2023-02-11T06:07:33.085Z,3.59
2023-02-11T06:12:36.935Z,3.63
2023-02-11T06:17:39.615Z,3.68
2023-02-11T06:22:43.717Z,3.69
2023-02-11T06:27:46.488Z,3.72
2023-02-11T06:32:49.357Z,3.72
2023-02-11T06:37:54.158Z,3.76
2023-02-11T06:42:57.069Z,3.82
2023-02-11T06:47:59.768Z,3.85
2023-02-11T06:53:03.860Z,3.90
2023-02-11T06:58:06.554Z,3.96
2023-02-11T07:03:09.397Z,4.00
2023-02-11T07:08:13.523Z,4.01
2023-02-11T07:13:16.365Z,4.01
2023-02-11T07:18:19.370Z,4.02
2023-02-11T07:23:23.434Z,4.02
2023-02-11T07:28:26.266Z,4.04
2023-02-11T07:33:29.042Z,4.09
2023-02-11T07:38:33.900Z,4.13
2023-02-11T07:43:37.051Z,4.17
2023-02-11T07:48:39.850Z,4.24
2023-02-11T07:53:43.957Z,4.24
2023-02-11T07:58:47.049Z,4.26
2023-02-11T08:03:49.872Z,4.28
2023-02-11T08:08:54.290Z,4.36
2023-02-11T08:13:58.131Z,4.48
2023-02-11T08:19:02.237Z,4.50
2023-02-11T08:24:07.249Z,4.48
2023-02-11T08:29:12.192Z,4.49
2023-02-11T08:34:18.233Z,4.48
2023-02-11T08:39:23.213Z,4.52
2023-02-11T08:44:26.036Z,4.64
2023-02-11T08:49:30.254Z,4.72
2023-02-11T08:54:34.329Z,4.76
2023-02-11T08:59:37.055Z,4.74
2023-02-11T09:04:40.127Z,4.67
2023-02-11T09:09:44.179Z,4.67
2023-02-11T09:14:47.193Z,4.78
2023-02-11T09:19:49.883Z,4.90
2023-02-11T09:24:54.002Z,5.02
2023-02-11T09:29:56.831Z,5.00
2023-02-11T09:34:59.552Z,4.99
2023-02-11T09:40:03.990Z,5.06
2023-02-11T09:45:15.745Z,5.04
2023-02-11T09:50:23.209Z,5.04
2023-02-11T09:55:29.893Z,5.08
2023-02-11T10:00:35.080Z,5.21
2023-02-11T10:05:51.280Z,5.32
2023-02-11T10:10:58.478Z,5.35
2023-02-11T10:16:11.132Z,5.42
2023-02-11T10:21:21.063Z,5.50
2023-02-11T10:26:27.610Z,5.53
2023-02-11T10:31:37.029Z,5.56
2023-02-11T10:36:41.749Z,5.72
2023-02-11T10:41:47.719Z,5.77
2023-02-11T10:46:50.970Z,5.77
2023-02-11T10:52:14.127Z,5.79
2023-02-11T10:57:20.295Z,5.75
2023-02-11T11:02:25.118Z,5.69
2023-02-11T11:07:29.792Z,5.67
2023-02-11T11:12:42.193Z,5.67
2023-02-11T11:17:45.142Z,5.72
2023-02-11T11:22:48.620Z,5.80
2023-02-11T11:27:54.485Z,5.81
2023-02-11T11:32:57.383Z,5.81
2023-02-11T11:38:02.383Z,5.79
2023-02-11T11:43:16.539Z,5.80
2023-02-11T11:48:23.340Z,5.83
2023-02-11T11:53:30.666Z,5.89
2023-02-11T11:58:35.341Z,5.89
2023-02-11T12:04:06.847Z,5.93
2023-02-11T12:09:20.588Z,5.94
2023-02-11T12:14:40.283Z,5.92
2023-02-11T12:20:03.957Z,5.96
2023-02-11T12:25:19.471Z,5.98
2023-02-11T12:30:40.263Z,5.96
2023-02-11T12:35:49.345Z,5.99
2023-02-11T12:41:01.931Z,6.04
2023-02-11T12:46:25.839Z,6.03
2023-02-11T12:51:38.843Z,6.05
2023-02-11T12:56:46.396Z,6.08
2023-02-11T13:01:50.976Z,6.09
2023-02-11T13:06:57.284Z,6.11
2023-02-11T13:12:22.048Z,6.10
2023-02-11T13:17:29.958Z,6.06
2023-02-11T13:22:35.693Z,6.05
2023-02-11T13:27:42.671Z,6.08
2023-02-11T13:33:06.604Z,6.06
2023-02-11T13:38:21.602Z,6.04
2023-02-11T13:43:28.438Z,6.04
2023-02-11T13:48:34.928Z,6.05
2023-02-11T13:53:46.846Z,6.04
2023-02-11T13:58:50.587Z,6.03
2023-02-11T14:04:38.239Z,6.04
2023-02-11T14:09:41.305Z,6.05
2023-02-11T14:15:02.889Z,6.05
2023-02-11T14:20:36.196Z,6.02
2023-02-11T14:25:40.409Z,6.06
2023-02-11T14:30:51.949Z,6.04
2023-02-11T14:36:03.746Z,6.03
2023-02-11T14:41:08.845Z,6.02
2023-02-11T14:46:11.702Z,6.02
2023-02-11T14:51:19.584Z,5.99
2023-02-11T14:56:26.255Z,5.98
2023-02-11T15:01:32.447Z,5.98
2023-02-11T15:06:38.944Z,6.00
2023-02-11T15:11:43.399Z,6.02
2023-02-11T15:16:47.075Z,6.06
2023-02-11T15:21:51.743Z,6.06
2023-02-11T15:26:59.261Z,6.09
2023-02-11T15:32:07.331Z,6.09
2023-02-11T15:37:14.774Z,6.10
2023-02-11T15:42:19.263Z,6.11
2023-02-11T15:47:22.707Z,6.09
2023-02-11T15:52:28.281Z,6.09
2023-02-11T15:57:31.362Z,6.05
2023-02-11T16:02:36.445Z,6.03
2023-02-11T16:07:43.387Z,6.01
2023-02-11T16:12:53.024Z,6.01
2023-02-11T16:17:56.120Z,6.01
2023-02-11T16:23:01.044Z,5.99
2023-02-11T16:28:03.871Z,5.97
2023-02-11T16:33:06.719Z,5.94
2023-02-11T16:38:10.895Z,5.90
2023-02-11T16:43:13.685Z,5.84
2023-02-11T16:48:18.430Z,5.82
2023-02-11T16:53:24.153Z,5.80
2023-02-11T16:58:26.939Z,5.80
2023-02-11T17:03:30.301Z,5.77
2023-02-11T17:08:35.545Z,5.77
2023-02-11T17:13:39.468Z,5.79
2023-02-11T17:18:42.237Z,5.83
2023-02-11T17:23:46.764Z,5.86
2023-02-11T17:28:49.480Z,5.87
2023-02-11T17:33:52.240Z,5.85
2023-02-11T17:38:56.795Z,5.80
2023-02-11T17:44:00.168Z,5.70
2023-02-11T17:49:03.543Z,5.66
2023-02-11T17:54:09.345Z,5.57
2023-02-11T17:59:13.931Z,5.48
2023-02-11T18:04:18.648Z,5.45
2023-02-11T18:09:22.714Z,5.42
2023-02-11T18:14:25.637Z,5.38
2023-02-11T18:19:32.996Z,5.31
2023-02-11T18:24:37.205Z,5.18
2023-02-11T18:29:40.030Z,5.15
2023-02-11T18:34:42.930Z,5.06
2023-02-11T18:39:47.071Z,5.03
2023-02-11T18:44:50.098Z,5.03
2023-02-11T18:49:53.086Z,4.98
2023-02-11T18:54:57.176Z,4.98
2023-02-11T18:59:59.950Z,5.00
2023-02-11T19:05:02.878Z,5.03
2023-02-11T19:10:08.667Z,5.06
2023-02-11T19:15:11.478Z,5.07
2023-02-11T19:20:14.344Z,5.07
2023-02-11T19:25:18.566Z,5.04
2023-02-11T19:30:21.613Z,5.09
2023-02-11T19:35:25.041Z,5.09
2023-02-11T19:40:29.324Z,5.09
2023-02-11T19:45:32.063Z,5.10
2023-02-11T19:50:34.882Z,5.13
2023-02-11T19:55:39.074Z,5.16
2023-02-11T20:00:42.121Z,5.15
2023-02-11T20:05:47.746Z,5.17
2023-02-11T20:10:51.983Z,5.16
2023-02-11T20:15:55.209Z,5.18
2023-02-11T20:21:00.143Z,5.18
2023-02-11T20:26:08.674Z,5.20
2023-02-11T20:31:12.584Z,5.21
2023-02-11T20:36:16.917Z,5.24
2023-02-11T20:41:22.795Z,5.21
2023-02-11T20:46:27.258Z,5.20
2023-02-11T20:51:31.519Z,5.22
2023-02-11T20:56:37.703Z,5.23
2023-02-11T21:01:43.230Z,5.22
2023-02-11T21:06:48.157Z,5.22
2023-02-11T21:11:53.280Z,5.28
2023-02-11T21:16:56.341Z,5.29
2023-02-11T21:22:00.694Z,5.35
2023-02-11T21:27:04.857Z,5.32
2023-02-11T21:32:07.653Z,5.34
2023-02-11T21:37:10.454Z,5.32
2023-02-11T21:42:14.666Z,5.30
2023-02-11T21:47:17.546Z,5.30
2023-02-11T21:52:20.628Z,5.33
2023-02-11T21:57:24.852Z,5.32
2023-02-11T22:02:27.765Z,5.31
2023-02-11T22:07:30.745Z,5.28
2023-02-11T22:12:34.835Z,5.34
2023-02-11T22:17:37.702Z,5.32
2023-02-11T22:22:40.532Z,5.34
2023-02-11T22:27:44.674Z,5.34
2023-02-11T22:32:47.454Z,5.34
2023-02-11T22:37:50.214Z,5.41
2023-02-11T22:42:54.529Z,5.45
2023-02-11T22:47:57.226Z,5.45
2023-02-11T22:53:00.053Z,5.45
2023-02-11T22:58:04.363Z,5.46
2023-02-11T23:03:08.483Z,5.50
2023-02-11T23:08:12.406Z,5.52
2023-02-11T23:13:16.726Z,5.55
2023-02-11T23:18:19.447Z,5.57
2023-02-11T23:23:22.202Z,5.55
2023-02-11T23:28:26.382Z,5.53
2023-02-11T23:33:29.211Z,5.55
2023-02-11T23:38:31.931Z,5.58
2023-02-11T23:43:36.248Z,5.54
2023-02-11T23:48:40.422Z,5.54
2023-02-11T23:53:43.378Z,5.53
2023-02-11T23:58:48.853Z,5.56
